sensor_id;sensor_type;location;lat;lon;timestamp;P1;durP1;ratioP1;P2;durP2;ratioP2
14516;SDS011;7344;50.864;4.362;2023-06-14T00:01:23;11.10;;;7.00;;
14516;SDS011;7344;50.864;4.362;2023-06-14T00:03:50;9.70;;;7.57;;
14516;SDS011;7344;50.864;4.362;2023-06-14T00:06:15;8.02;;;7.03;;
14516;SDS011;7344;50.864;4.362;2023-06-14T00:08:42;11.25;;;7.55;;
14516;SDS011;7344;50.864;4.362;2023-06-14T00:11:07;8.00;;;7.25;;
14516;SDS011;7344;50.864;4.362;2023-06-14T00:13:33;10.75;;;7.78;;
14516;SDS011;7344;50.864;4.362;2023-06-14T00:15:59;13.63;;;7.70;;
14516;SDS011;7344;50.864;4.362;2023-06-14T00:18:24;7.43;;;6.80;;
14516;SDS011;7344;50.864;4.362;2023-06-14T00:20:54;8.20;;;7.07;;
14516;SDS011;7344;50.864;4.362;2023-06-14T00:23:20;7.90;;;6.70;;
14516;SDS011;7344;50.864;4.362;2023-06-14T00:25:46;12.45;;;6.97;;
14516;SDS011;7344;50.864;4.362;2023-06-14T00:28:12;8.43;;;6.72;;
14516;SDS011;7344;50.864;4.362;2023-06-14T00:30:38;8.32;;;7.18;;
14516;SDS011;7344;50.864;4.362;2023-06-14T00:33:04;7.80;;;7.00;;
14516;SDS011;7344;50.864;4.362;2023-06-14T00:35:29;10.30;;;6.93;;
14516;SDS011;7344;50.864;4.362;2023-06-14T00:37:55;7.85;;;7.15;;
14516;SDS011;7344;50.864;4.362;2023-06-14T00:40:21;10.32;;;6.70;;
14516;SDS011;7344;50.864;4.362;2023-06-14T00:42:47;6.97;;;6.38;;
14516;SDS011;7344;50.864;4.362;2023-06-14T00:45:12;8.43;;;7.00;;
14516;SDS011;7344;50.864;4.362;2023-06-14T00:47:38;9.35;;;7.55;;
14516;SDS011;7344;50.864;4.362;2023-06-14T00:50:06;7.80;;;6.97;;
14516;SDS011;7344;50.864;4.362;2023-06-14T00:52:33;10.15;;;6.75;;
14516;SDS011;7344;50.864;4.362;2023-06-14T00:54:59;8.00;;;7.30;;
14516;SDS011;7344;50.864;4.362;2023-06-14T00:57:26;8.88;;;7.20;;
14516;SDS011;7344;50.864;4.362;2023-06-14T00:59:52;9.85;;;7.45;;
14516;SDS011;7344;50.864;4.362;2023-06-14T01:02:19;8.95;;;7.38;;
14516;SDS011;7344;50.864;4.362;2023-06-14T01:04:46;12.65;;;7.57;;
14516;SDS011;7344;50.864;4.362;2023-06-14T01:15:30;24.15;;;8.27;;
14516;SDS011;7344;50.864;4.362;2023-06-14T01:17:56;16.83;;;8.20;;
14516;SDS011;7344;50.864;4.362;2023-06-14T01:20:28;8.52;;;7.72;;
14516;SDS011;7344;50.864;4.362;2023-06-14T01:22:55;8.98;;;7.45;;
14516;SDS011;7344;50.864;4.362;2023-06-14T01:25:22;8.85;;;7.22;;
14516;SDS011;7344;50.864;4.362;2023-06-14T01:27:48;8.63;;;7.53;;
14516;SDS011;7344;50.864;4.362;2023-06-14T01:30:17;9.05;;;7.15;;
14516;SDS011;7344;50.864;4.362;2023-06-14T01:32:44;10.50;;;7.90;;
14516;SDS011;7344;50.864;4.362;2023-06-14T01:35:11;9.98;;;7.38;;
14516;SDS011;7344;50.864;4.362;2023-06-14T01:37:36;10.35;;;7.93;;
14516;SDS011;7344;50.864;4.362;2023-06-14T01:40:04;8.77;;;7.88;;
14516;SDS011;7344;50.864;4.362;2023-06-14T01:42:33;8.60;;;7.75;;
14516;SDS011;7344;50.864;4.362;2023-06-14T01:45:00;9.43;;;8.63;;
14516;SDS011;7344;50.864;4.362;2023-06-14T01:47:28;13.57;;;8.15;;
14516;SDS011;7344;50.864;4.362;2023-06-14T01:49:55;9.77;;;7.88;;
14516;SDS011;7344;50.864;4.362;2023-06-14T01:52:21;8.85;;;7.85;;
14516;SDS011;7344;50.864;4.362;2023-06-14T01:54:47;11.25;;;8.02;;
14516;SDS011;7344;50.864;4.362;2023-06-14T01:57:14;11.40;;;8.07;;
14516;SDS011;7344;50.864;4.362;2023-06-14T01:59:40;9.82;;;8.30;;
14516;SDS011;7344;50.864;4.362;2023-06-14T02:02:06;9.15;;;8.30;;
14516;SDS011;7344;50.864;4.362;2023-06-14T02:04:31;9.65;;;8.65;;
14516;SDS011;7344;50.864;4.362;2023-06-14T02:06:57;9.43;;;8.40;;
14516;SDS011;7344;50.864;4.362;2023-06-14T02:09:23;10.77;;;8.45;;
14516;SDS011;7344;50.864;4.362;2023-06-14T02:11:48;11.77;;;8.60;;
14516;SDS011;7344;50.864;4.362;2023-06-14T02:14:14;10.98;;;8.30;;
14516;SDS011;7344;50.864;4.362;2023-06-14T02:16:41;10.80;;;9.23;;
14516;SDS011;7344;50.864;4.362;2023-06-14T02:19:13;13.15;;;8.50;;
14516;SDS011;7344;50.864;4.362;2023-06-14T02:21:42;9.32;;;8.48;;
14516;SDS011;7344;50.864;4.362;2023-06-14T02:24:08;11.88;;;8.68;;
14516;SDS011;7344;50.864;4.362;2023-06-14T02:26:34;9.73;;;8.63;;
14516;SDS011;7344;50.864;4.362;2023-06-14T02:28:59;10.48;;;8.70;;
14516;SDS011;7344;50.864;4.362;2023-06-14T02:31:26;10.13;;;8.63;;
14516;SDS011;7344;50.864;4.362;2023-06-14T02:33:52;10.60;;;8.47;;
14516;SDS011;7344;50.864;4.362;2023-06-14T02:36:17;10.33;;;8.87;;
14516;SDS011;7344;50.864;4.362;2023-06-14T02:38:43;11.50;;;9.30;;
14516;SDS011;7344;50.864;4.362;2023-06-14T02:41:09;11.30;;;9.00;;
14516;SDS011;7344;50.864;4.362;2023-06-14T02:43:34;15.07;;;9.13;;
14516;SDS011;7344;50.864;4.362;2023-06-14T02:46:01;13.77;;;8.63;;
14516;SDS011;7344;50.864;4.362;2023-06-14T02:48:27;11.70;;;9.40;;
14516;SDS011;7344;50.864;4.362;2023-06-14T02:50:53;9.90;;;8.90;;
14516;SDS011;7344;50.864;4.362;2023-06-14T02:53:18;12.77;;;8.93;;
14516;SDS011;7344;50.864;4.362;2023-06-14T02:55:44;10.03;;;9.13;;
14516;SDS011;7344;50.864;4.362;2023-06-14T02:58:11;11.55;;;9.43;;
14516;SDS011;7344;50.864;4.362;2023-06-14T03:00:38;9.70;;;8.80;;
14516;SDS011;7344;50.864;4.362;2023-06-14T03:03:05;11.90;;;9.63;;
14516;SDS011;7344;50.864;4.362;2023-06-14T03:05:38;12.00;;;9.73;;
14516;SDS011;7344;50.864;4.362;2023-06-14T03:08:12;12.07;;;9.40;;
14516;SDS011;7344;50.864;4.362;2023-06-14T03:10:48;9.60;;;8.80;;
14516;SDS011;7344;50.864;4.362;2023-06-14T03:13:14;15.50;;;9.20;;
14516;SDS011;7344;50.864;4.362;2023-06-14T03:15:41;11.97;;;9.30;;
14516;SDS011;7344;50.864;4.362;2023-06-14T03:18:08;11.03;;;9.13;;
14516;SDS011;7344;50.864;4.362;2023-06-14T03:20:35;10.80;;;9.70;;
14516;SDS011;7344;50.864;4.362;2023-06-14T03:23:01;12.20;;;9.60;;
14516;SDS011;7344;50.864;4.362;2023-06-14T03:25:28;10.47;;;9.47;;
14516;SDS011;7344;50.864;4.362;2023-06-14T03:28:00;12.97;;;9.30;;
14516;SDS011;7344;50.864;4.362;2023-06-14T03:30:26;11.13;;;9.87;;
14516;SDS011;7344;50.864;4.362;2023-06-14T03:32:52;10.70;;;9.60;;
14516;SDS011;7344;50.864;4.362;2023-06-14T03:35:18;14.00;;;10.53;;
14516;SDS011;7344;50.864;4.362;2023-06-14T03:37:44;13.67;;;9.00;;
14516;SDS011;7344;50.864;4.362;2023-06-14T03:40:11;12.23;;;9.53;;
14516;SDS011;7344;50.864;4.362;2023-06-14T03:42:38;13.70;;;10.17;;
14516;SDS011;7344;50.864;4.362;2023-06-14T03:45:04;11.27;;;9.40;;
14516;SDS011;7344;50.864;4.362;2023-06-14T03:47:31;14.50;;;9.50;;
14516;SDS011;7344;50.864;4.362;2023-06-14T03:49:57;13.47;;;10.50;;
14516;SDS011;7344;50.864;4.362;2023-06-14T03:52:22;10.57;;;9.20;;
14516;SDS011;7344;50.864;4.362;2023-06-14T03:54:48;10.03;;;9.07;;
14516;SDS011;7344;50.864;4.362;2023-06-14T03:57:14;13.98;;;9.50;;
14516;SDS011;7344;50.864;4.362;2023-06-14T03:59:40;12.25;;;9.45;;
14516;SDS011;7344;50.864;4.362;2023-06-14T04:02:06;12.07;;;9.57;;
14516;SDS011;7344;50.864;4.362;2023-06-14T04:04:34;14.32;;;9.45;;
14516;SDS011;7344;50.864;4.362;2023-06-14T04:07:00;12.57;;;9.85;;
14516;SDS011;7344;50.864;4.362;2023-06-14T04:09:28;10.70;;;9.52;;
14516;SDS011;7344;50.864;4.362;2023-06-14T04:11:55;10.57;;;9.00;;
14516;SDS011;7344;50.864;4.362;2023-06-14T04:14:21;16.02;;;9.95;;
14516;SDS011;7344;50.864;4.362;2023-06-14T04:16:47;10.55;;;9.23;;
14516;SDS011;7344;50.864;4.362;2023-06-14T04:19:14;10.85;;;9.13;;
14516;SDS011;7344;50.864;4.362;2023-06-14T04:21:40;10.20;;;9.20;;
14516;SDS011;7344;50.864;4.362;2023-06-14T04:24:06;12.52;;;9.50;;
14516;SDS011;7344;50.864;4.362;2023-06-14T04:26:31;13.20;;;9.88;;
14516;SDS011;7344;50.864;4.362;2023-06-14T04:29:01;14.73;;;9.52;;
14516;SDS011;7344;50.864;4.362;2023-06-14T04:31:30;11.30;;;9.02;;
14516;SDS011;7344;50.864;4.362;2023-06-14T04:33:58;10.90;;;9.80;;
14516;SDS011;7344;50.864;4.362;2023-06-14T04:36:24;13.13;;;9.10;;
14516;SDS011;7344;50.864;4.362;2023-06-14T04:38:51;10.60;;;9.50;;
14516;SDS011;7344;50.864;4.362;2023-06-14T04:41:20;11.82;;;9.07;;
14516;SDS011;7344;50.864;4.362;2023-06-14T04:43:47;10.43;;;9.38;;
14516;SDS011;7344;50.864;4.362;2023-06-14T04:46:14;11.10;;;9.43;;
14516;SDS011;7344;50.864;4.362;2023-06-14T04:48:40;13.00;;;9.48;;
14516;SDS011;7344;50.864;4.362;2023-06-14T04:51:08;10.18;;;8.88;;
14516;SDS011;7344;50.864;4.362;2023-06-14T04:53:34;10.00;;;8.98;;
14516;SDS011;7344;50.864;4.362;2023-06-14T04:56:00;13.18;;;8.93;;
14516;SDS011;7344;50.864;4.362;2023-06-14T04:58:26;12.15;;;8.73;;
14516;SDS011;7344;50.864;4.362;2023-06-14T05:00:53;12.15;;;9.30;;
14516;SDS011;7344;50.864;4.362;2023-06-14T05:03:21;13.48;;;8.85;;
14516;SDS011;7344;50.864;4.362;2023-06-14T05:05:48;10.75;;;9.27;;
14516;SDS011;7344;50.864;4.362;2023-06-14T05:08:15;11.57;;;9.13;;
14516;SDS011;7344;50.864;4.362;2023-06-14T05:10:41;16.73;;;9.25;;
14516;SDS011;7344;50.864;4.362;2023-06-14T05:13:07;13.63;;;8.63;;
14516;SDS011;7344;50.864;4.362;2023-06-14T05:15:32;15.63;;;9.75;;
14516;SDS011;7344;50.864;4.362;2023-06-14T05:17:59;14.05;;;9.30;;
14516;SDS011;7344;50.864;4.362;2023-06-14T05:20:24;11.13;;;9.55;;
14516;SDS011;7344;50.864;4.362;2023-06-14T05:22:52;10.02;;;9.02;;
14516;SDS011;7344;50.864;4.362;2023-06-14T05:25:19;15.15;;;9.20;;
14516;SDS011;7344;50.864;4.362;2023-06-14T05:27:45;10.30;;;8.43;;
14516;SDS011;7344;50.864;4.362;2023-06-14T05:30:11;12.13;;;9.05;;
14516;SDS011;7344;50.864;4.362;2023-06-14T05:32:38;12.32;;;9.05;;
14516;SDS011;7344;50.864;4.362;2023-06-14T05:35:04;11.50;;;9.02;;
14516;SDS011;7344;50.864;4.362;2023-06-14T05:37:31;9.82;;;8.90;;
14516;SDS011;7344;50.864;4.362;2023-06-14T05:39:56;10.35;;;8.20;;
14516;SDS011;7344;50.864;4.362;2023-06-14T05:42:22;10.93;;;8.77;;
14516;SDS011;7344;50.864;4.362;2023-06-14T05:44:47;10.57;;;9.05;;
14516;SDS011;7344;50.864;4.362;2023-06-14T05:47:13;14.45;;;8.57;;
14516;SDS011;7344;50.864;4.362;2023-06-14T05:49:39;11.13;;;8.45;;
14516;SDS011;7344;50.864;4.362;2023-06-14T05:52:05;10.00;;;8.68;;
14516;SDS011;7344;50.864;4.362;2023-06-14T05:54:31;9.93;;;8.73;;
14516;SDS011;7344;50.864;4.362;2023-06-14T05:56:56;11.98;;;9.10;;
14516;SDS011;7344;50.864;4.362;2023-06-14T05:59:26;10.40;;;8.70;;
14516;SDS011;7344;50.864;4.362;2023-06-14T06:01:52;10.85;;;8.18;;
14516;SDS011;7344;50.864;4.362;2023-06-14T06:04:18;9.93;;;8.93;;
14516;SDS011;7344;50.864;4.362;2023-06-14T06:06:44;11.02;;;9.05;;
14516;SDS011;7344;50.864;4.362;2023-06-14T06:09:11;10.07;;;9.05;;
14516;SDS011;7344;50.864;4.362;2023-06-14T06:11:37;10.30;;;8.60;;
14516;SDS011;7344;50.864;4.362;2023-06-14T06:14:03;9.75;;;8.75;;
14516;SDS011;7344;50.864;4.362;2023-06-14T06:16:28;11.35;;;8.43;;
14516;SDS011;7344;50.864;4.362;2023-06-14T06:18:54;10.80;;;7.85;;
14516;SDS011;7344;50.864;4.362;2023-06-14T06:21:19;9.02;;;7.97;;
14516;SDS011;7344;50.864;4.362;2023-06-14T06:23:45;10.40;;;8.70;;
14516;SDS011;7344;50.864;4.362;2023-06-14T06:26:10;9.90;;;8.90;;
14516;SDS011;7344;50.864;4.362;2023-06-14T06:28:36;9.00;;;7.90;;
14516;SDS011;7344;50.864;4.362;2023-06-14T06:31:02;13.18;;;8.60;;
14516;SDS011;7344;50.864;4.362;2023-06-14T06:33:28;9.52;;;7.97;;
14516;SDS011;7344;50.864;4.362;2023-06-14T06:35:53;12.52;;;8.15;;
14516;SDS011;7344;50.864;4.362;2023-06-14T06:38:19;10.63;;;8.63;;
14516;SDS011;7344;50.864;4.362;2023-06-14T06:40:45;8.75;;;7.75;;
14516;SDS011;7344;50.864;4.362;2023-06-14T06:43:10;13.05;;;8.80;;
14516;SDS011;7344;50.864;4.362;2023-06-14T06:45:38;10.63;;;7.63;;
14516;SDS011;7344;50.864;4.362;2023-06-14T06:48:05;29.63;;;10.30;;
14516;SDS011;7344;50.864;4.362;2023-06-14T06:50:30;8.80;;;7.90;;
14516;SDS011;7344;50.864;4.362;2023-06-14T06:52:56;8.57;;;7.72;;
14516;SDS011;7344;50.864;4.362;2023-06-14T06:55:22;11.88;;;7.10;;
14516;SDS011;7344;50.864;4.362;2023-06-14T06:57:48;11.63;;;7.80;;
14516;SDS011;7344;50.864;4.362;2023-06-14T07:00:17;7.88;;;7.18;;
14516;SDS011;7344;50.864;4.362;2023-06-14T07:02:43;10.40;;;7.45;;
14516;SDS011;7344;50.864;4.362;2023-06-14T07:05:09;8.40;;;7.50;;
14516;SDS011;7344;50.864;4.362;2023-06-14T07:07:35;7.78;;;7.05;;
14516;SDS011;7344;50.864;4.362;2023-06-14T07:10:00;8.25;;;7.43;;
14516;SDS011;7344;50.864;4.362;2023-06-14T07:12:29;8.95;;;6.88;;
14516;SDS011;7344;50.864;4.362;2023-06-14T07:14:56;9.02;;;7.20;;
14516;SDS011;7344;50.864;4.362;2023-06-14T07:17:22;11.82;;;7.80;;
14516;SDS011;7344;50.864;4.362;2023-06-14T07:19:48;9.90;;;7.43;;
14516;SDS011;7344;50.864;4.362;2023-06-14T07:22:13;8.88;;;7.38;;
14516;SDS011;7344;50.864;4.362;2023-06-14T07:24:42;8.75;;;6.72;;
14516;SDS011;7344;50.864;4.362;2023-06-14T07:27:13;9.95;;;7.25;;
14516;SDS011;7344;50.864;4.362;2023-06-14T07:29:41;7.60;;;7.00;;
14516;SDS011;7344;50.864;4.362;2023-06-14T07:32:07;10.23;;;7.15;;
14516;SDS011;7344;50.864;4.362;2023-06-14T07:34:32;7.45;;;6.80;;
14516;SDS011;7344;50.864;4.362;2023-06-14T07:36:58;9.85;;;7.05;;
14516;SDS011;7344;50.864;4.362;2023-06-14T07:39:23;41.83;;;10.77;;
14516;SDS011;7344;50.864;4.362;2023-06-14T07:41:49;15.00;;;6.85;;
14516;SDS011;7344;50.864;4.362;2023-06-14T07:44:15;9.57;;;7.40;;
14516;SDS011;7344;50.864;4.362;2023-06-14T07:46:41;13.88;;;6.90;;
14516;SDS011;7344;50.864;4.362;2023-06-14T07:49:06;7.45;;;6.75;;
14516;SDS011;7344;50.864;4.362;2023-06-14T07:51:32;7.20;;;6.70;;
14516;SDS011;7344;50.864;4.362;2023-06-14T07:53:59;6.85;;;5.95;;
14516;SDS011;7344;50.864;4.362;2023-06-14T07:56:28;11.13;;;6.43;;
14516;SDS011;7344;50.864;4.362;2023-06-14T07:58:54;7.28;;;6.53;;
14516;SDS011;7344;50.864;4.362;2023-06-14T08:01:19;7.50;;;6.35;;
14516;SDS011;7344;50.864;4.362;2023-06-14T08:03:45;7.13;;;6.53;;
14516;SDS011;7344;50.864;4.362;2023-06-14T08:06:11;7.97;;;6.07;;
14516;SDS011;7344;50.864;4.362;2023-06-14T08:08:36;7.20;;;6.60;;
14516;SDS011;7344;50.864;4.362;2023-06-14T08:11:02;8.75;;;6.55;;
14516;SDS011;7344;50.864;4.362;2023-06-14T08:13:28;7.88;;;6.22;;
14516;SDS011;7344;50.864;4.362;2023-06-14T08:15:53;9.75;;;6.32;;
14516;SDS011;7344;50.864;4.362;2023-06-14T08:18:20;6.60;;;6.10;;
14516;SDS011;7344;50.864;4.362;2023-06-14T08:20:45;10.45;;;5.85;;
14516;SDS011;7344;50.864;4.362;2023-06-14T08:23:11;7.32;;;6.40;;
14516;SDS011;7344;50.864;4.362;2023-06-14T08:25:38;6.63;;;6.03;;
14516;SDS011;7344;50.864;4.362;2023-06-14T08:28:03;8.90;;;5.75;;
14516;SDS011;7344;50.864;4.362;2023-06-14T08:30:29;10.95;;;7.03;;
14516;SDS011;7344;50.864;4.362;2023-06-14T08:32:55;9.02;;;6.10;;
14516;SDS011;7344;50.864;4.362;2023-06-14T08:35:21;13.90;;;6.82;;
14516;SDS011;7344;50.864;4.362;2023-06-14T08:37:47;8.00;;;6.25;;
14516;SDS011;7344;50.864;4.362;2023-06-14T08:40:21;6.65;;;5.85;;
14516;SDS011;7344;50.864;4.362;2023-06-14T08:42:51;6.40;;;5.90;;
14516;SDS011;7344;50.864;4.362;2023-06-14T08:45:19;7.13;;;6.28;;
14516;SDS011;7344;50.864;4.362;2023-06-14T08:47:46;8.07;;;6.60;;
14516;SDS011;7344;50.864;4.362;2023-06-14T08:50:18;7.25;;;6.07;;
14516;SDS011;7344;50.864;4.362;2023-06-14T08:52:45;9.60;;;6.53;;
14516;SDS011;7344;50.864;4.362;2023-06-14T08:55:15;7.32;;;6.10;;
14516;SDS011;7344;50.864;4.362;2023-06-14T08:57:42;7.93;;;5.93;;
14516;SDS011;7344;50.864;4.362;2023-06-14T09:00:09;9.35;;;6.50;;
14516;SDS011;7344;50.864;4.362;2023-06-14T09:02:38;7.57;;;6.00;;
14516;SDS011;7344;50.864;4.362;2023-06-14T09:05:09;6.93;;;6.20;;
14516;SDS011;7344;50.864;4.362;2023-06-14T09:07:36;8.43;;;6.25;;
14516;SDS011;7344;50.864;4.362;2023-06-14T09:10:10;7.05;;;6.18;;
14516;SDS011;7344;50.864;4.362;2023-06-14T09:12:39;7.40;;;6.70;;
14516;SDS011;7344;50.864;4.362;2023-06-14T09:15:05;7.18;;;6.47;;
14516;SDS011;7344;50.864;4.362;2023-06-14T09:17:33;7.47;;;6.85;;
14516;SDS011;7344;50.864;4.362;2023-06-14T09:20:03;7.82;;;6.18;;
14516;SDS011;7344;50.864;4.362;2023-06-14T09:22:31;7.15;;;6.28;;
14516;SDS011;7344;50.864;4.362;2023-06-14T09:24:57;10.60;;;6.88;;
14516;SDS011;7344;50.864;4.362;2023-06-14T09:27:24;7.93;;;6.18;;
14516;SDS011;7344;50.864;4.362;2023-06-14T09:29:51;6.90;;;6.22;;
14516;SDS011;7344;50.864;4.362;2023-06-14T09:32:17;8.05;;;6.93;;
14516;SDS011;7344;50.864;4.362;2023-06-14T09:34:42;7.95;;;6.85;;
14516;SDS011;7344;50.864;4.362;2023-06-14T09:37:09;10.82;;;6.90;;
14516;SDS011;7344;50.864;4.362;2023-06-14T09:39:34;7.82;;;6.20;;
14516;SDS011;7344;50.864;4.362;2023-06-14T09:42:00;9.65;;;6.60;;
14516;SDS011;7344;50.864;4.362;2023-06-14T09:44:26;6.63;;;6.13;;
14516;SDS011;7344;50.864;4.362;2023-06-14T09:46:55;6.38;;;5.78;;
14516;SDS011;7344;50.864;4.362;2023-06-14T09:49:21;9.85;;;5.93;;
14516;SDS011;7344;50.864;4.362;2023-06-14T09:51:48;6.05;;;5.55;;
14516;SDS011;7344;50.864;4.362;2023-06-14T09:54:19;8.98;;;5.88;;
14516;SDS011;7344;50.864;4.362;2023-06-14T09:56:48;6.45;;;5.90;;
14516;SDS011;7344;50.864;4.362;2023-06-14T09:59:16;7.85;;;6.20;;
14516;SDS011;7344;50.864;4.362;2023-06-14T10:01:46;7.03;;;6.25;;
14516;SDS011;7344;50.864;4.362;2023-06-14T10:04:14;8.02;;;6.78;;
14516;SDS011;7344;50.864;4.362;2023-06-14T10:06:44;8.52;;;5.80;;
14516;SDS011;7344;50.864;4.362;2023-06-14T10:09:11;6.93;;;5.70;;
14516;SDS011;7344;50.864;4.362;2023-06-14T10:11:37;8.93;;;6.07;;
14516;SDS011;7344;50.864;4.362;2023-06-14T10:14:09;6.97;;;5.85;;
14516;SDS011;7344;50.864;4.362;2023-06-14T10:16:45;6.10;;;5.40;;
14516;SDS011;7344;50.864;4.362;2023-06-14T10:19:24;6.35;;;5.72;;
14516;SDS011;7344;50.864;4.362;2023-06-14T10:24:49;6.45;;;5.47;;
14516;SDS011;7344;50.864;4.362;2023-06-14T10:27:15;6.57;;;5.55;;
14516;SDS011;7344;50.864;4.362;2023-06-14T10:32:23;5.65;;;5.07;;
14516;SDS011;7344;50.864;4.362;2023-06-14T10:34:56;6.13;;;5.45;;
14516;SDS011;7344;50.864;4.362;2023-06-14T10:37:24;8.82;;;5.50;;
14516;SDS011;7344;50.864;4.362;2023-06-14T10:39:50;6.78;;;5.00;;
14516;SDS011;7344;50.864;4.362;2023-06-14T10:42:15;5.82;;;5.20;;
14516;SDS011;7344;50.864;4.362;2023-06-14T10:44:42;6.45;;;5.82;;
14516;SDS011;7344;50.864;4.362;2023-06-14T10:49:50;7.72;;;5.35;;
14516;SDS011;7344;50.864;4.362;2023-06-14T10:52:42;5.85;;;5.15;;
14516;SDS011;7344;50.864;4.362;2023-06-14T10:57:42;7.95;;;5.30;;
14516;SDS011;7344;50.864;4.362;2023-06-14T11:00:23;10.25;;;5.35;;
14516;SDS011;7344;50.864;4.362;2023-06-14T11:05:53;6.03;;;5.43;;
14516;SDS011;7344;50.864;4.362;2023-06-14T11:11:19;6.38;;;5.00;;
14516;SDS011;7344;50.864;4.362;2023-06-14T11:13:48;5.47;;;4.60;;
14516;SDS011;7344;50.864;4.362;2023-06-14T11:16:15;5.38;;;4.88;;
14516;SDS011;7344;50.864;4.362;2023-06-14T11:18:42;6.30;;;5.70;;
14516;SDS011;7344;50.864;4.362;2023-06-14T11:21:08;6.15;;;4.88;;
14516;SDS011;7344;50.864;4.362;2023-06-14T11:23:35;9.73;;;4.85;;
14516;SDS011;7344;50.864;4.362;2023-06-14T11:26:01;5.25;;;4.70;;
14516;SDS011;7344;50.864;4.362;2023-06-14T11:28:39;7.43;;;5.10;;
14516;SDS011;7344;50.864;4.362;2023-06-14T11:31:06;5.43;;;4.95;;
14516;SDS011;7344;50.864;4.362;2023-06-14T11:33:32;5.88;;;5.38;;
14516;SDS011;7344;50.864;4.362;2023-06-14T11:36:01;5.95;;;5.38;;
14516;SDS011;7344;50.864;4.362;2023-06-14T11:38:27;11.18;;;6.05;;
14516;SDS011;7344;50.864;4.362;2023-06-14T11:40:53;5.88;;;4.97;;
14516;SDS011;7344;50.864;4.362;2023-06-14T11:43:23;5.63;;;5.00;;
14516;SDS011;7344;50.864;4.362;2023-06-14T11:45:58;6.85;;;5.50;;
14516;SDS011;7344;50.864;4.362;2023-06-14T11:48:23;7.10;;;5.40;;
14516;SDS011;7344;50.864;4.362;2023-06-14T11:51:00;5.88;;;5.38;;
14516;SDS011;7344;50.864;4.362;2023-06-14T11:53:26;12.88;;;5.15;;
14516;SDS011;7344;50.864;4.362;2023-06-14T11:55:51;10.30;;;6.15;;
14516;SDS011;7344;50.864;4.362;2023-06-14T11:58:18;7.40;;;5.43;;
14516;SDS011;7344;50.864;4.362;2023-06-14T12:00:43;6.35;;;4.90;;
14516;SDS011;7344;50.864;4.362;2023-06-14T12:03:09;8.43;;;5.18;;
14516;SDS011;7344;50.864;4.362;2023-06-14T12:05:37;10.32;;;5.28;;
14516;SDS011;7344;50.864;4.362;2023-06-14T12:08:03;9.32;;;5.35;;
14516;SDS011;7344;50.864;4.362;2023-06-14T12:10:39;8.77;;;5.47;;
14516;SDS011;7344;50.864;4.362;2023-06-14T12:13:08;6.95;;;5.07;;
14516;SDS011;7344;50.864;4.362;2023-06-14T12:15:35;5.55;;;4.90;;
14516;SDS011;7344;50.864;4.362;2023-06-14T12:18:00;15.38;;;5.57;;
14516;SDS011;7344;50.864;4.362;2023-06-14T12:20:30;7.68;;;5.32;;
14516;SDS011;7344;50.864;4.362;2023-06-14T12:22:57;4.75;;;4.35;;
14516;SDS011;7344;50.864;4.362;2023-06-14T12:25:35;7.45;;;4.88;;
14516;SDS011;7344;50.864;4.362;2023-06-14T12:28:08;5.40;;;4.90;;
14516;SDS011;7344;50.864;4.362;2023-06-14T12:30:37;8.70;;;4.68;;
14516;SDS011;7344;50.864;4.362;2023-06-14T12:33:03;5.28;;;4.28;;
14516;SDS011;7344;50.864;4.362;2023-06-14T12:35:29;13.55;;;4.90;;
14516;SDS011;7344;50.864;4.362;2023-06-14T12:37:55;6.18;;;4.40;;
14516;SDS011;7344;50.864;4.362;2023-06-14T12:40:21;5.13;;;4.57;;
14516;SDS011;7344;50.864;4.362;2023-06-14T12:42:47;5.63;;;5.03;;
14516;SDS011;7344;50.864;4.362;2023-06-14T12:45:13;5.15;;;4.50;;
14516;SDS011;7344;50.864;4.362;2023-06-14T12:47:39;4.85;;;4.45;;
14516;SDS011;7344;50.864;4.362;2023-06-14T12:50:05;4.85;;;4.45;;
14516;SDS011;7344;50.864;4.362;2023-06-14T12:52:31;5.72;;;4.30;;
14516;SDS011;7344;50.864;4.362;2023-06-14T12:55:00;4.70;;;4.20;;
14516;SDS011;7344;50.864;4.362;2023-06-14T12:57:27;7.57;;;4.68;;
14516;SDS011;7344;50.864;4.362;2023-06-14T12:59:53;5.13;;;4.60;;
14516;SDS011;7344;50.864;4.362;2023-06-14T13:02:19;5.82;;;4.38;;
14516;SDS011;7344;50.864;4.362;2023-06-14T13:04:49;5.43;;;4.82;;
14516;SDS011;7344;50.864;4.362;2023-06-14T13:07:15;4.80;;;4.35;;
14516;SDS011;7344;50.864;4.362;2023-06-14T13:09:41;8.18;;;4.90;;
14516;SDS011;7344;50.864;4.362;2023-06-14T13:12:08;6.03;;;4.32;;
14516;SDS011;7344;50.864;4.362;2023-06-14T13:14:37;4.35;;;3.95;;
14516;SDS011;7344;50.864;4.362;2023-06-14T13:17:05;6.22;;;4.30;;
14516;SDS011;7344;50.864;4.362;2023-06-14T13:19:31;6.55;;;4.05;;
14516;SDS011;7344;50.864;4.362;2023-06-14T13:21:57;7.47;;;4.40;;
14516;SDS011;7344;50.864;4.362;2023-06-14T13:24:22;4.75;;;4.10;;
14516;SDS011;7344;50.864;4.362;2023-06-14T13:26:48;5.40;;;3.80;;
14516;SDS011;7344;50.864;4.362;2023-06-14T13:29:13;5.07;;;3.70;;
14516;SDS011;7344;50.864;4.362;2023-06-14T13:31:39;4.43;;;3.97;;
14516;SDS011;7344;50.864;4.362;2023-06-14T13:34:05;7.43;;;3.45;;
14516;SDS011;7344;50.864;4.362;2023-06-14T13:36:31;4.95;;;3.70;;
14516;SDS011;7344;50.864;4.362;2023-06-14T13:38:56;5.72;;;4.00;;
14516;SDS011;7344;50.864;4.362;2023-06-14T13:41:25;4.30;;;3.80;;
14516;SDS011;7344;50.864;4.362;2023-06-14T13:43:56;4.88;;;4.07;;
14516;SDS011;7344;50.864;4.362;2023-06-14T13:46:23;4.57;;;3.70;;
14516;SDS011;7344;50.864;4.362;2023-06-14T13:48:48;4.07;;;3.85;;
14516;SDS011;7344;50.864;4.362;2023-06-14T13:51:14;3.92;;;3.60;;
14516;SDS011;7344;50.864;4.362;2023-06-14T13:53:39;6.65;;;3.50;;
14516;SDS011;7344;50.864;4.362;2023-06-14T13:56:05;4.63;;;3.10;;
14516;SDS011;7344;50.864;4.362;2023-06-14T13:58:31;4.35;;;3.22;;
14516;SDS011;7344;50.864;4.362;2023-06-14T14:00:57;3.83;;;3.10;;
14516;SDS011;7344;50.864;4.362;2023-06-14T14:03:24;3.28;;;3.08;;
14516;SDS011;7344;50.864;4.362;2023-06-14T14:05:50;3.17;;;2.97;;
14516;SDS011;7344;50.864;4.362;2023-06-14T14:08:15;4.03;;;3.10;;
14516;SDS011;7344;50.864;4.362;2023-06-14T14:10:41;5.38;;;2.97;;
14516;SDS011;7344;50.864;4.362;2023-06-14T14:13:07;3.97;;;2.90;;
14516;SDS011;7344;50.864;4.362;2023-06-14T14:15:32;4.20;;;3.10;;
14516;SDS011;7344;50.864;4.362;2023-06-14T14:17:59;5.70;;;3.40;;
14516;SDS011;7344;50.864;4.362;2023-06-14T14:20:25;5.20;;;2.50;;
14516;SDS011;7344;50.864;4.362;2023-06-14T14:22:51;4.80;;;2.60;;
14516;SDS011;7344;50.864;4.362;2023-06-14T14:25:16;2.67;;;2.30;;
14516;SDS011;7344;50.864;4.362;2023-06-14T14:27:42;2.40;;;2.20;;
14516;SDS011;7344;50.864;4.362;2023-06-14T14:30:08;4.93;;;2.42;;
14516;SDS011;7344;50.864;4.362;2023-06-14T14:32:34;5.95;;;2.42;;
14516;SDS011;7344;50.864;4.362;2023-06-14T14:34:59;3.10;;;2.38;;
14516;SDS011;7344;50.864;4.362;2023-06-14T14:37:25;4.15;;;2.30;;
14516;SDS011;7344;50.864;4.362;2023-06-14T14:39:51;3.00;;;2.63;;
14516;SDS011;7344;50.864;4.362;2023-06-14T14:42:16;6.80;;;3.17;;
14516;SDS011;7344;50.864;4.362;2023-06-14T14:44:43;3.65;;;2.10;;
14516;SDS011;7344;50.864;4.362;2023-06-14T14:47:09;2.83;;;2.38;;
14516;SDS011;7344;50.864;4.362;2023-06-14T14:49:35;3.42;;;2.20;;
14516;SDS011;7344;50.864;4.362;2023-06-14T14:52:00;4.88;;;2.53;;
14516;SDS011;7344;50.864;4.362;2023-06-14T14:54:26;4.88;;;2.85;;
14516;SDS011;7344;50.864;4.362;2023-06-14T14:56:53;3.13;;;2.90;;
14516;SDS011;7344;50.864;4.362;2023-06-14T14:59:19;2.55;;;1.95;;
14516;SDS011;7344;50.864;4.362;2023-06-14T15:01:47;2.80;;;2.55;;
14516;SDS011;7344;50.864;4.362;2023-06-14T15:04:12;3.33;;;2.33;;
14516;SDS011;7344;50.864;4.362;2023-06-14T15:06:38;4.80;;;2.47;;
14516;SDS011;7344;50.864;4.362;2023-06-14T15:09:05;3.22;;;2.00;;
14516;SDS011;7344;50.864;4.362;2023-06-14T15:11:31;2.55;;;1.92;;
14516;SDS011;7344;50.864;4.362;2023-06-14T15:13:56;3.13;;;2.20;;
14516;SDS011;7344;50.864;4.362;2023-06-14T15:16:22;1.98;;;1.80;;
14516;SDS011;7344;50.864;4.362;2023-06-14T15:18:48;2.10;;;2.00;;